Exeland, Wisconsin
Current Conditions -  °F | °C
As of 8:35 AM on Sunday 23 Nov 2014 (Local Time) from KRCX Reporting Station
Moderate Fog Moderate Fog  
Wind Chill: 40°   Ceiling: 200
Heat Index: 45°   Visibility: 0mi
Dew Point: 44°   Wind: 8mph
Humidity: 97%   Direction: 170°S
Pressure: 29.51"   Gusts: NA
Location:  45.67°N, 91.24°W
Report Text: KRCX 231435Z AUTO 17007KT M1/4SM FG OVC002 07/07 A2951 RMK AO2 T00710067
Loading
Personal Weather Stations






























Interactive Weather Map New forecast layout! Learn more

10-Day Weather Forecast

Advertisements
Track Severe Weather on mobile